createdAt,value
2023-03-12T00:00:11.500Z,8.10
2023-03-12T00:02:39.056Z,7.57
2023-03-12T00:05:07.052Z,8.47
2023-03-12T00:07:36.723Z,7.60
2023-03-12T00:10:05.764Z,8.37
2023-03-12T00:12:36.484Z,8.77
2023-03-12T00:15:05.006Z,7.87
2023-03-12T00:17:32.283Z,7.60
2023-03-12T00:20:00.134Z,7.73
2023-03-12T00:22:28.172Z,7.87
2023-03-12T00:24:58.900Z,7.43
2023-03-12T00:27:26.670Z,7.47
2023-03-12T00:29:54.401Z,7.43
2023-03-12T00:32:22.186Z,7.57
2023-03-12T00:34:54.226Z,7.67
2023-03-12T00:37:22.328Z,8.20
2023-03-12T00:39:49.693Z,7.03
2023-03-12T00:42:17.852Z,7.43
2023-03-12T00:44:45.859Z,7.50
2023-03-12T00:47:14.906Z,7.57
2023-03-12T00:49:42.476Z,7.23
2023-03-12T00:52:09.794Z,7.60
2023-03-12T00:54:37.167Z,6.60
2023-03-12T00:57:04.663Z,7.27
2023-03-12T00:59:32.389Z,6.50
2023-03-12T01:02:00.345Z,6.10
2023-03-12T01:04:28.378Z,7.60
2023-03-12T01:06:56.460Z,6.87
2023-03-12T01:09:23.873Z,6.70
2023-03-12T01:11:51.374Z,6.70
2023-03-12T01:14:18.998Z,6.10
2023-03-12T01:16:46.349Z,6.67
2023-03-12T01:19:14.056Z,6.97
2023-03-12T01:21:41.436Z,7.00
2023-03-12T01:24:08.984Z,6.77
2023-03-12T01:26:36.262Z,6.70
2023-03-12T01:29:03.714Z,6.63
2023-03-12T01:31:31.269Z,6.77
2023-03-12T01:33:58.696Z,5.90
2023-03-12T01:36:29.271Z,6.40
2023-03-12T01:38:58.755Z,6.30
2023-03-12T01:41:28.446Z,5.93
2023-03-12T01:43:56.011Z,6.03
2023-03-12T01:46:31.251Z,6.33
2023-03-12T01:49:22.255Z,5.80
2023-03-12T01:52:06.784Z,6.00
2023-03-12T01:54:53.844Z,6.40
2023-03-12T01:57:42.322Z,6.80
2023-03-12T02:00:14.172Z,6.87
2023-03-12T02:02:44.439Z,6.20
2023-03-12T02:05:20.704Z,6.27
2023-03-12T02:07:48.049Z,6.17
2023-03-12T02:10:16.943Z,6.87
2023-03-12T02:12:44.598Z,5.63
2023-03-12T02:15:12.519Z,6.47
2023-03-12T02:17:40.895Z,6.60
2023-03-12T02:20:22.217Z,5.70
2023-03-12T02:23:00.670Z,5.70
2023-03-12T02:25:51.974Z,5.83
2023-03-12T02:28:25.487Z,4.20
2023-03-12T02:30:57.541Z,6.10
2023-03-12T02:33:25.752Z,6.00
2023-03-12T02:35:54.515Z,6.03
2023-03-12T02:38:49.016Z,4.77
2023-03-12T02:41:38.243Z,6.37
2023-03-12T02:44:26.200Z,4.00
2023-03-12T02:46:59.018Z,5.40
2023-03-12T02:49:31.183Z,5.43
2023-03-12T02:51:59.160Z,5.23
2023-03-12T02:54:26.846Z,5.53
2023-03-12T02:56:54.651Z,5.30
2023-03-12T02:59:26.360Z,4.73
2023-03-12T03:01:56.611Z,5.43
2023-03-12T03:04:26.378Z,5.50
2023-03-12T03:06:53.876Z,4.60
2023-03-12T03:09:23.278Z,5.37
2023-03-12T03:11:51.476Z,5.93
2023-03-12T03:14:19.747Z,5.00
2023-03-12T03:16:47.164Z,4.87
2023-03-12T03:19:14.517Z,5.27
2023-03-12T03:21:42.016Z,4.73
2023-03-12T03:24:09.678Z,4.30
2023-03-12T03:26:37.235Z,4.77
2023-03-12T03:29:05.104Z,4.60
2023-03-12T03:31:35.934Z,4.07
2023-03-12T03:34:03.993Z,4.83
2023-03-12T03:36:31.269Z,4.53
2023-03-12T03:38:58.591Z,4.10
2023-03-12T03:41:26.936Z,4.67
2023-03-12T03:43:58.902Z,4.57
2023-03-12T03:46:27.375Z,3.27
2023-03-12T03:48:54.986Z,4.50
2023-03-12T03:51:22.449Z,4.83
2023-03-12T03:53:49.795Z,5.00
2023-03-12T03:56:17.587Z,4.83
2023-03-12T03:58:45.243Z,4.43
2023-03-12T04:01:15.963Z,5.00
2023-03-12T04:03:43.651Z,5.23
2023-03-12T04:06:11.894Z,4.87
2023-03-12T04:08:39.975Z,4.63
2023-03-12T04:11:16.333Z,5.50
2023-03-12T04:13:44.605Z,5.20
2023-03-12T04:16:12.854Z,3.60
2023-03-12T04:18:40.928Z,5.00
2023-03-12T04:21:10.348Z,4.80
2023-03-12T04:23:38.632Z,3.80
2023-03-12T04:26:07.350Z,5.20
2023-03-12T04:28:35.503Z,5.63
2023-03-12T04:31:10.343Z,5.23
2023-03-12T04:33:40.606Z,5.50
2023-03-12T04:36:09.213Z,5.27
2023-03-12T04:38:39.751Z,4.53
2023-03-12T04:41:13.369Z,5.17
2023-03-12T04:43:41.145Z,5.50
2023-03-12T04:46:09.311Z,5.20
2023-03-12T04:48:37.399Z,5.63
2023-03-12T04:51:06.045Z,5.47
2023-03-12T04:53:34.285Z,5.10
2023-03-12T04:56:01.886Z,4.17
2023-03-12T04:58:29.360Z,5.07
2023-03-12T05:00:57.006Z,5.07
2023-03-12T05:03:24.362Z,5.67
2023-03-12T05:05:51.851Z,5.47
2023-03-12T05:08:19.277Z,5.70
2023-03-12T05:10:47.539Z,5.33
2023-03-12T05:13:17.551Z,5.07
2023-03-12T05:15:45.647Z,5.03
2023-03-12T05:18:12.920Z,5.30
2023-03-12T05:20:40.487Z,5.17
2023-03-12T05:23:07.910Z,4.80
2023-03-12T05:25:40.896Z,6.27
2023-03-12T05:28:08.621Z,5.23
2023-03-12T05:30:35.896Z,4.93
2023-03-12T05:33:03.701Z,5.33
2023-03-12T05:35:31.077Z,5.20
2023-03-12T05:37:58.390Z,4.97
2023-03-12T05:40:25.731Z,4.97
2023-03-12T05:42:53.912Z,6.10
2023-03-12T05:45:21.212Z,5.03
2023-03-12T05:47:48.678Z,4.53
2023-03-12T05:50:17.112Z,4.60
2023-03-12T05:52:44.555Z,5.20
2023-03-12T05:55:12.067Z,4.80
2023-03-12T05:57:40.037Z,5.13
2023-03-12T06:00:08.481Z,4.57
2023-03-12T06:02:36.532Z,4.97
2023-03-12T06:05:04.018Z,4.83
2023-03-12T06:07:35.085Z,4.50
2023-03-12T06:10:02.473Z,5.27
2023-03-12T06:12:29.832Z,4.80
2023-03-12T06:14:58.840Z,5.43
2023-03-12T06:17:26.684Z,15.13
2023-03-12T06:19:54.926Z,4.83
2023-03-12T06:22:22.462Z,4.90
2023-03-12T06:24:50.486Z,4.93
2023-03-12T06:27:18.064Z,13.07
2023-03-12T06:29:47.445Z,6.30
2023-03-12T06:32:15.735Z,5.67
2023-03-12T06:34:43.054Z,6.20
2023-03-12T06:37:11.926Z,5.60
2023-03-12T06:39:39.604Z,6.17
2023-03-12T06:42:07.087Z,6.50
2023-03-12T06:44:35.607Z,5.90
2023-03-12T06:47:03.202Z,5.53
2023-03-12T06:49:34.374Z,3.60
2023-03-12T06:52:05.094Z,5.67
2023-03-12T06:54:32.963Z,5.80
2023-03-12T06:57:00.469Z,5.43
2023-03-12T06:59:28.894Z,5.70
2023-03-12T07:01:57.338Z,4.30
2023-03-12T07:04:24.897Z,5.30
2023-03-12T07:06:52.170Z,4.47
2023-03-12T07:09:20.469Z,6.00
2023-03-12T07:11:48.140Z,4.03
2023-03-12T07:14:15.675Z,4.10
2023-03-12T07:16:43.179Z,6.33
2023-03-12T07:19:10.662Z,5.43
2023-03-12T07:21:38.080Z,3.07
2023-03-12T07:24:08.092Z,4.40
2023-03-12T07:26:37.814Z,7.33
2023-03-12T07:29:05.439Z,5.23
2023-03-12T07:31:33.125Z,4.20
2023-03-12T07:34:00.790Z,4.93
2023-03-12T07:36:30.048Z,4.73
2023-03-12T07:39:00.176Z,5.13
2023-03-12T07:41:27.795Z,5.17
2023-03-12T07:43:55.242Z,4.40
2023-03-12T07:46:32.590Z,6.53
2023-03-12T07:49:00.199Z,4.60
2023-03-12T07:51:27.628Z,8.80
2023-03-12T07:53:55.408Z,6.73
2023-03-12T07:56:23.050Z,6.87
2023-03-12T07:58:50.700Z,5.90
2023-03-12T08:01:18.296Z,4.37
2023-03-12T08:03:46.026Z,3.47
2023-03-12T08:06:13.628Z,4.93
2023-03-12T08:08:45.461Z,4.57
2023-03-12T08:11:12.776Z,5.40
2023-03-12T08:13:40.176Z,7.07
2023-03-12T08:16:09.442Z,4.60
2023-03-12T08:18:37.334Z,3.53
2023-03-12T08:21:05.039Z,4.40
2023-03-12T08:23:34.344Z,4.20
2023-03-12T08:26:01.815Z,3.77
2023-03-12T08:28:29.575Z,3.73
2023-03-12T08:31:00.354Z,3.67
2023-03-12T08:33:27.756Z,3.43
2023-03-12T08:35:55.238Z,3.87
2023-03-12T08:38:22.858Z,4.23
2023-03-12T08:41:00.452Z,3.70
2023-03-12T08:43:29.466Z,3.77
2023-03-12T08:46:02.976Z,3.40
2023-03-12T08:48:32.736Z,3.77
2023-03-12T08:51:04.397Z,4.00
2023-03-12T08:53:33.123Z,4.20
2023-03-12T08:56:00.604Z,3.60
2023-03-12T08:58:29.413Z,3.73
2023-03-12T09:00:57.927Z,3.93
2023-03-12T09:03:26.149Z,3.87
2023-03-12T09:06:04.977Z,4.50
2023-03-12T09:08:35.566Z,4.00
2023-03-12T09:11:03.059Z,3.90
2023-03-12T09:13:40.620Z,4.00
2023-03-12T09:16:18.090Z,3.90
2023-03-12T09:18:45.685Z,4.30
2023-03-12T09:21:13.201Z,3.40
2023-03-12T09:23:41.636Z,4.03
2023-03-12T09:26:13.282Z,3.57
2023-03-12T09:28:41.305Z,4.13
2023-03-12T09:31:09.404Z,3.33
2023-03-12T09:33:36.863Z,3.40
2023-03-12T09:36:04.470Z,3.00
2023-03-12T09:38:33.510Z,2.90
2023-03-12T09:41:00.998Z,3.40
2023-03-12T09:43:42.117Z,2.73
2023-03-12T09:46:16.149Z,2.87
2023-03-12T09:48:45.759Z,2.83
2023-03-12T09:51:52.002Z,2.63
2023-03-12T09:54:37.701Z,2.70
2023-03-12T09:57:13.054Z,2.60
2023-03-12T09:59:40.554Z,3.00
2023-03-12T10:02:43.670Z,3.07
2023-03-12T10:05:34.353Z,2.97
2023-03-12T10:08:24.280Z,2.83
2023-03-12T10:11:12.516Z,3.20
2023-03-12T10:14:08.039Z,3.80
2023-03-12T10:17:00.502Z,3.53
2023-03-12T10:20:06.411Z,3.77
2023-03-12T10:22:36.689Z,3.53
2023-03-12T10:25:32.522Z,3.80
2023-03-12T10:28:12.041Z,3.87
2023-03-12T10:30:45.037Z,3.77
2023-03-12T10:33:16.259Z,3.60
2023-03-12T10:35:43.770Z,3.77
2023-03-12T10:38:31.450Z,4.00
2023-03-12T10:40:58.892Z,3.57
2023-03-12T10:43:27.363Z,3.90
2023-03-12T10:46:43.167Z,3.53
2023-03-12T10:49:22.496Z,3.47
2023-03-12T10:52:19.972Z,4.80
2023-03-12T10:54:50.595Z,4.33
2023-03-12T10:57:18.645Z,4.33
2023-03-12T10:59:47.992Z,3.80
2023-03-12T11:02:39.003Z,6.03
2023-03-12T11:05:23.132Z,4.40
2023-03-12T11:07:51.566Z,3.70
2023-03-12T11:10:29.035Z,4.20
2023-03-12T11:13:22.330Z,4.53
2023-03-12T11:15:51.406Z,3.73
2023-03-12T11:18:21.263Z,3.83
2023-03-12T11:20:52.834Z,3.53
2023-03-12T11:23:29.296Z,3.93
2023-03-12T11:26:03.390Z,3.77
2023-03-12T11:28:39.692Z,4.30
2023-03-12T11:31:14.984Z,4.07
2023-03-12T11:33:43.310Z,4.70
2023-03-12T11:36:33.153Z,4.20
2023-03-12T11:39:33.385Z,3.57
2023-03-12T11:42:38.284Z,10.57
2023-03-12T11:45:27.668Z,3.90
2023-03-12T11:48:29.567Z,4.80
2023-03-12T11:51:08.362Z,3.83
2023-03-12T11:53:54.527Z,3.90
2023-03-12T11:56:24.880Z,3.97
2023-03-12T11:59:10.241Z,3.70
2023-03-12T12:01:57.825Z,3.43
2023-03-12T12:04:40.324Z,4.03
2023-03-12T12:07:38.550Z,5.60
2023-03-12T12:10:25.990Z,4.60
2023-03-12T12:13:02.774Z,4.43
2023-03-12T12:15:46.876Z,4.10
2023-03-12T12:18:50.680Z,4.10
2023-03-12T12:21:29.709Z,4.77
2023-03-12T12:24:34.504Z,3.47
2023-03-12T12:27:22.265Z,3.53
2023-03-12T12:30:16.158Z,4.47
2023-03-12T12:33:23.230Z,3.60
2023-03-12T12:35:51.593Z,4.13
2023-03-12T12:38:37.747Z,4.03
2023-03-12T12:41:23.962Z,6.07
2023-03-12T12:43:56.863Z,4.67
2023-03-12T12:46:47.888Z,3.70
2023-03-12T12:49:26.166Z,8.27
2023-03-12T12:52:04.181Z,9.23
2023-03-12T12:55:12.662Z,11.77
2023-03-12T12:58:02.238Z,6.30
2023-03-12T13:00:40.071Z,5.43
2023-03-12T13:03:12.288Z,4.33
2023-03-12T13:05:53.156Z,3.60
2023-03-12T13:08:43.989Z,3.30
2023-03-12T13:11:20.696Z,3.10
2023-03-12T13:14:05.330Z,3.53
2023-03-12T13:16:34.747Z,3.10
2023-03-12T13:19:14.426Z,2.83
2023-03-12T13:21:46.058Z,3.23
2023-03-12T13:24:37.021Z,4.60
2023-03-12T13:27:36.572Z,6.50
2023-03-12T13:30:39.221Z,10.73
2023-03-12T13:33:13.856Z,55.60
2023-03-12T13:35:41.984Z,43.67
2023-03-12T13:38:18.559Z,16.93
2023-03-12T13:41:04.578Z,2.20
2023-03-12T13:43:38.189Z,1.80
2023-03-12T13:46:43.668Z,1.50
2023-03-12T13:49:14.473Z,2.00
2023-03-12T13:52:01.375Z,1.80
2023-03-12T13:54:35.356Z,1.63
2023-03-12T13:57:13.150Z,1.50
2023-03-12T13:59:47.059Z,2.33
2023-03-12T14:02:35.228Z,2.73
2023-03-12T14:05:07.061Z,6.13
2023-03-12T14:07:50.257Z,28.97
2023-03-12T14:10:20.188Z,1.90
2023-03-12T14:13:26.672Z,2.57
2023-03-12T14:16:16.844Z,3.53
2023-03-12T14:18:46.047Z,2.13
2023-03-12T14:21:17.952Z,3.00
2023-03-12T14:23:58.723Z,11.57
2023-03-12T14:26:30.964Z,22.53
2023-03-12T14:29:32.633Z,41.30
2023-03-12T14:32:06.859Z,2.20
2023-03-12T14:34:48.658Z,27.87
2023-03-12T14:37:38.878Z,4.00
2023-03-12T14:40:27.283Z,2.40
2023-03-12T14:42:55.942Z,8.63
2023-03-12T14:45:24.420Z,22.70
2023-03-12T14:47:59.453Z,2.33
2023-03-12T14:50:30.627Z,2.80
2023-03-12T14:53:23.851Z,1.60
2023-03-12T14:56:14.546Z,1.27
2023-03-12T14:58:47.493Z,2.90
2023-03-12T15:01:20.096Z,1.73
2023-03-12T15:03:55.613Z,2.10
2023-03-12T15:06:32.064Z,3.40
2023-03-12T15:09:04.555Z,1.90
2023-03-12T15:11:37.746Z,2.40
2023-03-12T15:14:17.670Z,2.30
2023-03-12T15:16:45.716Z,5.00
2023-03-12T15:19:15.589Z,2.33
2023-03-12T15:21:43.428Z,4.43
2023-03-12T15:24:13.678Z,5.60
2023-03-12T15:26:44.144Z,2.47
2023-03-12T15:29:38.568Z,2.40
2023-03-12T15:32:16.075Z,4.17
2023-03-12T15:34:44.617Z,9.57
2023-03-12T15:37:33.485Z,2.87
2023-03-12T15:40:07.111Z,10.50
2023-03-12T15:42:41.554Z,7.53
2023-03-12T15:45:39.381Z,5.83
2023-03-12T15:48:30.577Z,13.20
2023-03-12T15:50:58.459Z,28.07
2023-03-12T15:53:29.297Z,6.67
2023-03-12T15:56:05.355Z,7.73
2023-03-12T15:58:35.599Z,5.17
2023-03-12T16:01:10.530Z,7.17
2023-03-12T16:03:40.295Z,3.97
2023-03-12T16:06:20.367Z,6.73
2023-03-12T16:09:04.013Z,42.07
2023-03-12T16:11:34.519Z,20.10
2023-03-12T16:14:27.730Z,14.80
2023-03-12T16:16:55.139Z,13.97
2023-03-12T16:19:24.551Z,92.97
2023-03-12T16:21:51.913Z,67.63
2023-03-12T16:24:19.261Z,28.60
2023-03-12T16:26:53.866Z,45.63
2023-03-12T16:29:22.447Z,18.27
2023-03-12T16:31:55.907Z,12.50
2023-03-12T16:34:23.902Z,21.37
2023-03-12T16:36:51.702Z,10.60
2023-03-12T16:39:19.205Z,16.10
2023-03-12T16:41:49.758Z,14.53
2023-03-12T16:44:21.847Z,12.07
2023-03-12T16:46:49.411Z,17.77
2023-03-12T16:49:18.369Z,19.53
2023-03-12T16:51:45.726Z,23.17
2023-03-12T16:54:13.564Z,19.53
2023-03-12T16:56:48.522Z,22.40
2023-03-12T16:59:26.039Z,18.10
2023-03-12T17:01:53.810Z,16.30
2023-03-12T17:04:21.964Z,12.43
2023-03-12T17:06:49.428Z,13.43
2023-03-12T17:09:17.933Z,29.67
2023-03-12T17:11:53.034Z,29.23
2023-03-12T17:14:22.662Z,36.93
2023-03-12T17:16:50.870Z,37.90
2023-03-12T17:19:18.243Z,30.20
2023-03-12T17:21:47.394Z,18.80
2023-03-12T17:24:15.032Z,13.07
2023-03-12T17:26:44.430Z,15.47
2023-03-12T17:29:11.758Z,21.10
2023-03-12T17:31:40.093Z,26.90
2023-03-12T17:34:07.742Z,34.63
2023-03-12T17:36:38.072Z,36.87
2023-03-12T17:39:05.996Z,29.80
2023-03-12T17:41:36.077Z,33.13
2023-03-12T17:44:04.329Z,43.67
2023-03-12T17:46:32.730Z,43.57
2023-03-12T17:49:00.721Z,52.30
2023-03-12T17:51:28.342Z,52.63
2023-03-12T17:53:55.950Z,40.90
2023-03-12T17:56:23.274Z,38.13
2023-03-12T17:58:50.733Z,50.50
2023-03-12T18:01:18.988Z,74.00
2023-03-12T18:03:46.640Z,54.30
2023-03-12T18:06:14.096Z,63.40
2023-03-12T18:08:41.638Z,94.93
2023-03-12T18:11:09.895Z,86.87
2023-03-12T18:13:39.365Z,90.17
2023-03-12T18:16:08.278Z,120.90
2023-03-12T18:18:35.641Z,94.93
2023-03-12T18:21:03.232Z,71.67
2023-03-12T18:23:30.788Z,49.87
2023-03-12T18:25:58.236Z,25.33
2023-03-12T18:28:25.581Z,27.27
2023-03-12T18:30:54.609Z,32.70
2023-03-12T18:33:22.045Z,32.83
2023-03-12T18:35:49.377Z,37.83
2023-03-12T18:38:16.754Z,41.30
2023-03-12T18:40:44.232Z,36.67
2023-03-12T18:43:13.063Z,30.03
2023-03-12T18:45:44.590Z,19.27
2023-03-12T18:48:11.963Z,32.63
2023-03-12T18:50:40.717Z,26.93
2023-03-12T18:53:08.154Z,19.37
2023-03-12T18:55:35.735Z,20.53
2023-03-12T18:58:03.080Z,24.20
2023-03-12T19:00:30.856Z,16.90
2023-03-12T19:02:58.412Z,15.00
2023-03-12T19:05:25.874Z,19.47
2023-03-12T19:07:53.329Z,24.60
2023-03-12T19:10:20.760Z,26.47
2023-03-12T19:12:53.062Z,27.07
2023-03-12T19:15:22.848Z,26.27
2023-03-12T19:17:50.676Z,54.27
2023-03-12T19:20:18.373Z,16.60
2023-03-12T19:22:45.977Z,18.30
2023-03-12T19:25:13.572Z,20.80
2023-03-12T19:27:40.980Z,20.53
2023-03-12T19:30:11.352Z,21.30
2023-03-12T19:32:43.777Z,19.17
2023-03-12T19:35:13.847Z,19.93
2023-03-12T19:37:42.442Z,21.07
2023-03-12T19:40:11.733Z,18.23
2023-03-12T19:42:39.275Z,23.27
2023-03-12T19:45:07.647Z,23.30
2023-03-12T19:47:35.286Z,24.30
2023-03-12T19:50:03.571Z,17.60
2023-03-12T19:52:31.732Z,13.63
2023-03-12T19:55:04.616Z,11.43
2023-03-12T19:57:33.440Z,14.13
2023-03-12T20:00:01.611Z,11.57
2023-03-12T20:02:32.162Z,8.47
2023-03-12T20:04:59.535Z,10.07
2023-03-12T20:07:27.262Z,18.07
2023-03-12T20:09:54.512Z,8.63
2023-03-12T20:12:22.165Z,8.20
2023-03-12T20:14:49.529Z,7.83
2023-03-12T20:17:16.932Z,8.17
2023-03-12T20:19:44.388Z,8.57
2023-03-12T20:22:11.707Z,10.13
2023-03-12T20:24:39.153Z,13.60
2023-03-12T20:27:06.515Z,10.47
2023-03-12T20:29:34.892Z,10.37
2023-03-12T20:32:02.183Z,12.00
2023-03-12T20:34:29.603Z,16.70
2023-03-12T20:36:58.316Z,10.77
2023-03-12T20:39:25.747Z,11.87
2023-03-12T20:41:53.116Z,15.93
2023-03-12T20:44:20.567Z,14.37
2023-03-12T20:46:48.434Z,17.03
2023-03-12T20:49:16.009Z,12.83
2023-03-12T20:51:44.890Z,13.50
2023-03-12T20:54:12.982Z,14.73
2023-03-12T20:56:44.415Z,14.00
2023-03-12T20:59:16.007Z,12.77
2023-03-12T21:01:43.524Z,18.97
2023-03-12T21:04:11.387Z,18.23
2023-03-12T21:06:38.757Z,21.77
2023-03-12T21:09:06.225Z,20.57
2023-03-12T21:11:33.675Z,21.40
2023-03-12T21:14:01.042Z,19.43
2023-03-12T21:16:28.416Z,32.07
2023-03-12T21:18:56.997Z,27.50
2023-03-12T21:21:24.741Z,23.17
2023-03-12T21:23:52.179Z,27.60
2023-03-12T21:26:19.756Z,26.60
2023-03-12T21:28:47.151Z,23.67
2023-03-12T21:31:17.446Z,40.83
2023-03-12T21:33:44.910Z,57.40
2023-03-12T21:36:14.620Z,51.40
2023-03-12T21:38:44.417Z,47.30
2023-03-12T21:41:15.065Z,49.90
2023-03-12T21:43:43.570Z,45.37
2023-03-12T21:46:13.414Z,52.47
2023-03-12T21:48:43.356Z,41.63
2023-03-12T21:51:13.247Z,37.77
2023-03-12T21:53:40.588Z,40.73
2023-03-12T21:56:08.898Z,44.77
2023-03-12T21:58:37.584Z,26.03
2023-03-12T22:01:08.081Z,22.30
2023-03-12T22:03:36.489Z,17.17
2023-03-12T22:06:04.432Z,14.20
2023-03-12T22:08:32.435Z,19.43
2023-03-12T22:11:00.183Z,16.20
2023-03-12T22:13:28.228Z,19.20
2023-03-12T22:15:58.459Z,15.00
2023-03-12T22:18:26.407Z,17.70
2023-03-12T22:20:55.753Z,16.53
2023-03-12T22:23:24.006Z,18.63
2023-03-12T22:25:52.059Z,19.60
2023-03-12T22:28:19.831Z,22.30
2023-03-12T22:30:47.168Z,33.40
2023-03-12T22:33:15.661Z,35.20
2023-03-12T22:35:47.538Z,33.70
2023-03-12T22:38:15.416Z,29.63
2023-03-12T22:40:44.557Z,28.80
2023-03-12T22:43:11.967Z,25.10
2023-03-12T22:45:39.308Z,25.00
2023-03-12T22:48:07.256Z,22.77
2023-03-12T22:50:34.731Z,16.53
2023-03-12T22:53:02.293Z,15.37
2023-03-12T22:55:29.652Z,6.30
2023-03-12T22:57:57.402Z,5.33
2023-03-12T23:00:26.920Z,4.50
2023-03-12T23:02:54.529Z,4.30
2023-03-12T23:05:22.009Z,4.23
2023-03-12T23:07:50.008Z,4.13
2023-03-12T23:10:17.506Z,4.10
2023-03-12T23:12:45.809Z,4.07
2023-03-12T23:15:13.797Z,3.70
2023-03-12T23:17:41.742Z,3.43
2023-03-12T23:20:10.091Z,3.53
2023-03-12T23:22:37.504Z,3.40
2023-03-12T23:25:05.295Z,3.20
2023-03-12T23:27:32.547Z,2.70
2023-03-12T23:29:59.874Z,3.23
2023-03-12T23:32:27.476Z,3.30
2023-03-12T23:34:54.837Z,5.10
2023-03-12T23:37:22.216Z,5.50
2023-03-12T23:39:54.799Z,3.50
2023-03-12T23:42:22.527Z,4.03
2023-03-12T23:44:49.745Z,4.70
2023-03-12T23:47:17.038Z,6.23
2023-03-12T23:49:44.521Z,5.03
2023-03-12T23:52:11.852Z,5.17
2023-03-12T23:54:39.179Z,5.27
2023-03-12T23:57:07.417Z,5.90
2023-03-12T23:59:34.827Z,7.90
